Terminal Aerodrome Forecast
Issued by NWS Sterling, VA

Home | Current Version | Previous Version | Text Only | Print | Product List | Glossary On
Versions: 1 2 3 4 5 6 7 8 9 10 11 12
000
FTUS41 KLWX 291100
TAFMRB
TAF
KMRB 291126Z 2912/3012 00000KT P6SM FEW250
     FM291600 10006KT P6SM FEW050 FEW250
     FM300600 VRB03KT P6SM BKN090=

USA.gov is the U.S. government's official web portal to all federal, state and local government web resources and services.